sensor_id;sensor_type;location;lat;lon;timestamp;pressure;altitude;pressure_sealevel;temperature;humidity
58471;BME280;44258;51.288;12.068;2023-05-12T00:01:26;100464.59;;;15.42;53.08
58471;BME280;44258;51.288;12.068;2023-05-12T00:03:54;100458.47;;;15.27;54.09
58471;BME280;44258;51.288;12.068;2023-05-12T00:06:21;100465.38;;;15.31;54.21
58471;BME280;44258;51.288;12.068;2023-05-12T00:08:48;100478.19;;;15.29;54.63
58471;BME280;44258;51.288;12.068;2023-05-12T00:11:15;100463.47;;;15.33;54.47
58471;BME280;44258;51.288;12.068;2023-05-12T00:13:45;100464.06;;;15.37;54.84
58471;BME280;44258;51.288;12.068;2023-05-12T00:16:11;100468.19;;;15.42;54.04
58471;BME280;44258;51.288;12.068;2023-05-12T00:18:40;100462.88;;;15.28;54.78
58471;BME280;44258;51.288;12.068;2023-05-12T00:21:10;100468.84;;;15.20;55.23
58471;BME280;44258;51.288;12.068;2023-05-12T00:23:39;100469.63;;;15.22;55.66
58471;BME280;44258;51.288;12.068;2023-05-12T00:26:05;100461.50;;;15.35;55.33
58471;BME280;44258;51.288;12.068;2023-05-12T00:28:32;100468.41;;;15.39;54.86
58471;BME280;44258;51.288;12.068;2023-05-12T00:31:00;100472.09;;;15.38;55.54
58471;BME280;44258;51.288;12.068;2023-05-12T00:33:27;100468.88;;;15.33;55.78
58471;BME280;44258;51.288;12.068;2023-05-12T00:35:54;100463.31;;;15.34;55.72
58471;BME280;44258;51.288;12.068;2023-05-12T00:38:21;100466.94;;;15.09;56.25
58471;BME280;44258;51.288;12.068;2023-05-12T00:40:48;100464.75;;;15.14;56.45
58471;BME280;44258;51.288;12.068;2023-05-12T00:43:15;100465.41;;;15.18;56.40
58471;BME280;44258;51.288;12.068;2023-05-12T00:45:42;100468.22;;;15.17;56.63
58471;BME280;44258;51.288;12.068;2023-05-12T00:48:09;100465.09;;;15.23;56.53
58471;BME280;44258;51.288;12.068;2023-05-12T00:50:36;100467.56;;;15.26;56.15
58471;BME280;44258;51.288;12.068;2023-05-12T00:53:03;100460.19;;;15.28;56.34
58471;BME280;44258;51.288;12.068;2023-05-12T00:55:31;100462.03;;;15.27;56.53
58471;BME280;44258;51.288;12.068;2023-05-12T00:57:58;100459.75;;;15.34;56.29
58471;BME280;44258;51.288;12.068;2023-05-12T01:00:25;100457.13;;;15.32;56.32
58471;BME280;44258;51.288;12.068;2023-05-12T01:02:54;100459.41;;;15.26;57.03
58471;BME280;44258;51.288;12.068;2023-05-12T01:05:24;100460.44;;;15.12;57.39
58471;BME280;44258;51.288;12.068;2023-05-12T01:07:55;100467.13;;;14.82;58.38
58471;BME280;44258;51.288;12.068;2023-05-12T01:10:23;100468.75;;;14.33;60.17
58471;BME280;44258;51.288;12.068;2023-05-12T01:12:51;100466.38;;;14.54;59.58
58471;BME280;44258;51.288;12.068;2023-05-12T01:15:18;100471.47;;;14.72;59.22
58471;BME280;44258;51.288;12.068;2023-05-12T01:17:47;100467.41;;;14.78;59.24
58471;BME280;44258;51.288;12.068;2023-05-12T01:20:20;100469.69;;;14.84;58.69
58471;BME280;44258;51.288;12.068;2023-05-12T01:22:48;100470.03;;;14.79;58.93
58471;BME280;44258;51.288;12.068;2023-05-12T01:25:18;100476.75;;;14.73;59.11
58471;BME280;44258;51.288;12.068;2023-05-12T01:27:46;100473.06;;;14.74;59.68
58471;BME280;44258;51.288;12.068;2023-05-12T01:30:16;100469.16;;;14.79;59.51
58471;BME280;44258;51.288;12.068;2023-05-12T01:32:43;100470.56;;;14.84;59.29
58471;BME280;44258;51.288;12.068;2023-05-12T01:35:09;100468.72;;;14.85;59.95
58471;BME280;44258;51.288;12.068;2023-05-12T01:37:36;100471.44;;;14.85;59.98
58471;BME280;44258;51.288;12.068;2023-05-12T01:40:03;100485.72;;;14.87;59.65
58471;BME280;44258;51.288;12.068;2023-05-12T01:42:30;100479.31;;;14.88;59.74
58471;BME280;44258;51.288;12.068;2023-05-12T01:44:58;100468.63;;;14.86;59.83
58471;BME280;44258;51.288;12.068;2023-05-12T01:47:25;100479.13;;;14.91;60.04
58471;BME280;44258;51.288;12.068;2023-05-12T01:49:54;100474.34;;;14.94;59.98
58471;BME280;44258;51.288;12.068;2023-05-12T01:52:20;100472.25;;;14.98;59.95
58471;BME280;44258;51.288;12.068;2023-05-12T01:54:49;100478.44;;;15.00;60.05
58471;BME280;44258;51.288;12.068;2023-05-12T01:57:18;100477.06;;;14.94;60.26
58471;BME280;44258;51.288;12.068;2023-05-12T01:59:45;100470.44;;;14.86;60.71
58471;BME280;44258;51.288;12.068;2023-05-12T02:02:13;100472.97;;;14.76;61.39
58471;BME280;44258;51.288;12.068;2023-05-12T02:04:39;100468.31;;;14.78;61.33
58471;BME280;44258;51.288;12.068;2023-05-12T02:07:06;100467.41;;;14.78;61.44
58471;BME280;44258;51.288;12.068;2023-05-12T02:09:33;100464.63;;;14.79;61.52
58471;BME280;44258;51.288;12.068;2023-05-12T02:11:59;100463.66;;;14.80;61.63
58471;BME280;44258;51.288;12.068;2023-05-12T02:14:26;100470.25;;;14.76;61.97
58471;BME280;44258;51.288;12.068;2023-05-12T02:16:53;100466.47;;;14.66;62.22
58471;BME280;44258;51.288;12.068;2023-05-12T02:19:21;100466.47;;;14.66;62.53
58471;BME280;44258;51.288;12.068;2023-05-12T02:21:47;100471.44;;;14.59;62.67
58471;BME280;44258;51.288;12.068;2023-05-12T02:24:14;100467.88;;;14.46;63.10
58471;BME280;44258;51.288;12.068;2023-05-12T02:26:45;100475.03;;;14.60;62.77
58471;BME280;44258;51.288;12.068;2023-05-12T02:29:12;100482.06;;;14.62;62.93
58471;BME280;44258;51.288;12.068;2023-05-12T02:31:38;100479.03;;;14.67;62.99
58471;BME280;44258;51.288;12.068;2023-05-12T02:34:05;100480.19;;;14.75;62.16
58471;BME280;44258;51.288;12.068;2023-05-12T02:36:33;100478.25;;;14.78;62.27
58471;BME280;44258;51.288;12.068;2023-05-12T02:38:59;100485.41;;;14.79;62.11
58471;BME280;44258;51.288;12.068;2023-05-12T02:41:26;100480.00;;;14.79;61.99
58471;BME280;44258;51.288;12.068;2023-05-12T02:43:53;100483.47;;;14.55;63.08
58471;BME280;44258;51.288;12.068;2023-05-12T02:46:20;100482.81;;;14.51;63.36
58471;BME280;44258;51.288;12.068;2023-05-12T02:48:47;100481.84;;;14.40;63.85
58471;BME280;44258;51.288;12.068;2023-05-12T02:51:13;100484.88;;;14.48;63.19
58471;BME280;44258;51.288;12.068;2023-05-12T02:53:44;100490.06;;;14.51;63.25
58471;BME280;44258;51.288;12.068;2023-05-12T02:56:10;100499.69;;;14.55;62.78
58471;BME280;44258;51.288;12.068;2023-05-12T02:58:37;100486.22;;;14.28;63.67
58471;BME280;44258;51.288;12.068;2023-05-12T03:01:04;100497.94;;;14.41;63.44
58471;BME280;44258;51.288;12.068;2023-05-12T03:03:31;100480.53;;;14.45;63.12
58471;BME280;44258;51.288;12.068;2023-05-12T03:05:57;100481.53;;;14.44;63.31
58471;BME280;44258;51.288;12.068;2023-05-12T03:08:24;100483.22;;;14.32;63.97
58471;BME280;44258;51.288;12.068;2023-05-12T03:10:52;100478.03;;;14.29;64.04
58471;BME280;44258;51.288;12.068;2023-05-12T03:13:19;100467.09;;;14.31;64.29
58471;BME280;44258;51.288;12.068;2023-05-12T03:15:49;100479.34;;;14.37;64.09
58471;BME280;44258;51.288;12.068;2023-05-12T03:18:16;100476.09;;;14.44;63.89
58471;BME280;44258;51.288;12.068;2023-05-12T03:20:42;100481.41;;;14.46;63.45
58471;BME280;44258;51.288;12.068;2023-05-12T03:23:09;100480.53;;;14.45;63.72
58471;BME280;44258;51.288;12.068;2023-05-12T03:25:36;100491.06;;;14.50;63.52
58471;BME280;44258;51.288;12.068;2023-05-12T03:28:04;100484.56;;;14.52;63.42
58471;BME280;44258;51.288;12.068;2023-05-12T03:30:30;100488.13;;;14.53;63.43
58471;BME280;44258;51.288;12.068;2023-05-12T03:32:58;100480.00;;;14.53;63.33
58471;BME280;44258;51.288;12.068;2023-05-12T03:35:25;100495.47;;;14.38;63.67
58471;BME280;44258;51.288;12.068;2023-05-12T03:37:52;100477.97;;;14.04;65.35
58471;BME280;44258;51.288;12.068;2023-05-12T03:40:19;100476.59;;;14.24;64.50
58471;BME280;44258;51.288;12.068;2023-05-12T03:42:46;100470.47;;;14.34;64.26
58471;BME280;44258;51.288;12.068;2023-05-12T03:45:14;100472.22;;;14.36;64.43
58471;BME280;44258;51.288;12.068;2023-05-12T03:47:41;100461.50;;;14.34;64.20
58471;BME280;44258;51.288;12.068;2023-05-12T03:50:08;100469.84;;;14.44;63.87
58471;BME280;44258;51.288;12.068;2023-05-12T03:52:35;100475.66;;;14.50;63.66
58471;BME280;44258;51.288;12.068;2023-05-12T03:55:06;100470.38;;;14.49;63.82
58471;BME280;44258;51.288;12.068;2023-05-12T03:57:33;100471.03;;;14.52;63.40
58471;BME280;44258;51.288;12.068;2023-05-12T04:00:00;100470.59;;;14.46;63.30
58471;BME280;44258;51.288;12.068;2023-05-12T04:02:29;100473.94;;;14.49;63.00
58471;BME280;44258;51.288;12.068;2023-05-12T04:04:56;100481.75;;;14.54;62.56
58471;BME280;44258;51.288;12.068;2023-05-12T04:07:23;100467.47;;;14.52;62.47
58471;BME280;44258;51.288;12.068;2023-05-12T04:09:49;100481.50;;;14.57;61.96
58471;BME280;44258;51.288;12.068;2023-05-12T04:12:20;100474.91;;;14.36;62.72
58471;BME280;44258;51.288;12.068;2023-05-12T04:14:47;100472.41;;;14.32;62.85
58471;BME280;44258;51.288;12.068;2023-05-12T04:17:14;100469.25;;;14.26;62.16
58471;BME280;44258;51.288;12.068;2023-05-12T04:19:44;100476.78;;;14.21;61.38
58471;BME280;44258;51.288;12.068;2023-05-12T04:22:11;100483.13;;;14.34;60.99
58471;BME280;44258;51.288;12.068;2023-05-12T04:24:37;100481.78;;;14.27;60.40
58471;BME280;44258;51.288;12.068;2023-05-12T04:27:05;100491.69;;;14.41;60.14
58471;BME280;44258;51.288;12.068;2023-05-12T04:29:31;100490.28;;;14.48;59.85
58471;BME280;44258;51.288;12.068;2023-05-12T04:31:58;100495.03;;;14.57;59.11
58471;BME280;44258;51.288;12.068;2023-05-12T04:34:25;100492.56;;;14.54;59.24
58471;BME280;44258;51.288;12.068;2023-05-12T04:36:53;100498.50;;;14.59;59.70
58471;BME280;44258;51.288;12.068;2023-05-12T04:39:19;100501.53;;;14.67;59.75
58471;BME280;44258;51.288;12.068;2023-05-12T04:41:46;100503.38;;;14.67;59.38
58471;BME280;44258;51.288;12.068;2023-05-12T04:44:13;100506.31;;;14.77;59.37
58471;BME280;44258;51.288;12.068;2023-05-12T04:46:39;100502.06;;;14.85;59.35
58471;BME280;44258;51.288;12.068;2023-05-12T04:49:07;100505.94;;;14.94;59.21
58471;BME280;44258;51.288;12.068;2023-05-12T04:51:34;100503.81;;;14.86;59.71
58471;BME280;44258;51.288;12.068;2023-05-12T04:54:08;100502.50;;;14.92;60.07
58471;BME280;44258;51.288;12.068;2023-05-12T04:56:35;100508.03;;;15.03;59.75
58471;BME280;44258;51.288;12.068;2023-05-12T04:59:01;100497.09;;;14.79;59.67
58471;BME280;44258;51.288;12.068;2023-05-12T05:01:28;100509.03;;;14.64;60.46
58471;BME280;44258;51.288;12.068;2023-05-12T05:03:54;100506.50;;;14.73;60.04
58471;BME280;44258;51.288;12.068;2023-05-12T05:06:21;100515.06;;;14.67;59.61
58471;BME280;44258;51.288;12.068;2023-05-12T05:08:48;100519.84;;;14.64;59.13
58471;BME280;44258;51.288;12.068;2023-05-12T05:11:16;100510.94;;;14.49;59.10
58471;BME280;44258;51.288;12.068;2023-05-12T05:13:43;100514.09;;;14.68;58.67
58471;BME280;44258;51.288;12.068;2023-05-12T05:16:09;100516.59;;;14.59;58.99
58471;BME280;44258;51.288;12.068;2023-05-12T05:18:36;100513.69;;;14.74;58.78
58471;BME280;44258;51.288;12.068;2023-05-12T05:21:02;100523.28;;;14.91;57.03
58471;BME280;44258;51.288;12.068;2023-05-12T05:23:29;100518.41;;;14.84;57.05
58471;BME280;44258;51.288;12.068;2023-05-12T05:25:55;100526.97;;;14.78;57.29
58471;BME280;44258;51.288;12.068;2023-05-12T05:28:24;100522.75;;;14.99;57.20
58471;BME280;44258;51.288;12.068;2023-05-12T05:30:50;100516.25;;;15.02;56.42
58471;BME280;44258;51.288;12.068;2023-05-12T05:33:17;100522.88;;;14.59;56.36
58471;BME280;44258;51.288;12.068;2023-05-12T05:35:44;100518.75;;;14.79;56.18
58471;BME280;44258;51.288;12.068;2023-05-12T05:38:12;100524.63;;;14.60;55.94
58471;BME280;44258;51.288;12.068;2023-05-12T05:40:39;100527.06;;;14.38;56.18
58471;BME280;44258;51.288;12.068;2023-05-12T05:43:06;100524.25;;;14.39;56.34
58471;BME280;44258;51.288;12.068;2023-05-12T05:45:34;100530.03;;;14.73;55.61
58471;BME280;44258;51.288;12.068;2023-05-12T05:48:01;100538.25;;;14.84;55.60
58471;BME280;44258;51.288;12.068;2023-05-12T05:50:27;100530.34;;;14.81;55.57
58471;BME280;44258;51.288;12.068;2023-05-12T05:52:54;100541.72;;;14.73;56.11
58471;BME280;44258;51.288;12.068;2023-05-12T05:55:23;100531.34;;;14.80;55.78
58471;BME280;44258;51.288;12.068;2023-05-12T05:57:49;100537.16;;;15.00;55.66
58471;BME280;44258;51.288;12.068;2023-05-12T06:00:16;100545.63;;;14.95;55.43
58471;BME280;44258;51.288;12.068;2023-05-12T06:02:44;100539.31;;;14.82;55.45
58471;BME280;44258;51.288;12.068;2023-05-12T06:05:11;100547.13;;;14.99;55.06
58471;BME280;44258;51.288;12.068;2023-05-12T06:07:38;100542.75;;;15.22;54.92
58471;BME280;44258;51.288;12.068;2023-05-12T06:10:06;100544.06;;;15.42;54.62
58471;BME280;44258;51.288;12.068;2023-05-12T06:12:33;100538.66;;;15.66;54.29
58471;BME280;44258;51.288;12.068;2023-05-12T06:14:59;100539.72;;;15.77;53.69
58471;BME280;44258;51.288;12.068;2023-05-12T06:17:29;100546.88;;;15.28;54.67
58471;BME280;44258;51.288;12.068;2023-05-12T06:19:57;100550.22;;;15.31;54.82
58471;BME280;44258;51.288;12.068;2023-05-12T06:22:24;100555.34;;;15.10;55.20
58471;BME280;44258;51.288;12.068;2023-05-12T06:24:50;100560.13;;;15.07;55.75
58471;BME280;44258;51.288;12.068;2023-05-12T06:27:19;100563.88;;;15.30;55.36
58471;BME280;44258;51.288;12.068;2023-05-12T06:29:46;100561.72;;;15.48;54.78
58471;BME280;44258;51.288;12.068;2023-05-12T06:32:13;100559.47;;;15.03;55.34
58471;BME280;44258;51.288;12.068;2023-05-12T06:34:40;100564.22;;;15.12;55.52
58471;BME280;44258;51.288;12.068;2023-05-12T06:37:10;100564.69;;;14.68;56.60
58471;BME280;44258;51.288;12.068;2023-05-12T06:39:36;100558.59;;;14.77;57.09
58471;BME280;44258;51.288;12.068;2023-05-12T06:42:03;100557.50;;;14.80;55.76
58471;BME280;44258;51.288;12.068;2023-05-12T06:44:30;100556.31;;;15.22;55.44
58471;BME280;44258;51.288;12.068;2023-05-12T06:46:57;100556.44;;;15.70;54.47
58471;BME280;44258;51.288;12.068;2023-05-12T06:49:24;100561.09;;;15.68;54.12
58471;BME280;44258;51.288;12.068;2023-05-12T06:51:50;100566.72;;;15.78;53.03
58471;BME280;44258;51.288;12.068;2023-05-12T06:54:18;100563.78;;;16.05;53.14
58471;BME280;44258;51.288;12.068;2023-05-12T06:56:45;100572.00;;;15.80;53.87
58471;BME280;44258;51.288;12.068;2023-05-12T06:59:14;100576.56;;;15.79;53.40
58471;BME280;44258;51.288;12.068;2023-05-12T07:01:40;100570.06;;;16.06;53.12
58471;BME280;44258;51.288;12.068;2023-05-12T07:04:07;100570.22;;;15.91;52.79
58471;BME280;44258;51.288;12.068;2023-05-12T07:06:34;100568.97;;;16.08;53.32
58471;BME280;44258;51.288;12.068;2023-05-12T07:09:01;100576.53;;;15.68;53.75
58471;BME280;44258;51.288;12.068;2023-05-12T07:11:29;100584.38;;;15.34;52.79
58471;BME280;44258;51.288;12.068;2023-05-12T07:13:56;100585.09;;;15.49;53.75
58471;BME280;44258;51.288;12.068;2023-05-12T07:16:22;100586.78;;;16.00;52.46
58471;BME280;44258;51.288;12.068;2023-05-12T07:18:49;100580.47;;;16.83;50.71
58471;BME280;44258;51.288;12.068;2023-05-12T07:21:16;100578.88;;;16.91;50.75
58471;BME280;44258;51.288;12.068;2023-05-12T07:23:43;100590.06;;;17.33;49.26
58471;BME280;44258;51.288;12.068;2023-05-12T07:26:10;100581.53;;;17.38;48.10
58471;BME280;44258;51.288;12.068;2023-05-12T07:28:38;100578.81;;;17.49;48.54
58471;BME280;44258;51.288;12.068;2023-05-12T07:31:06;100578.44;;;17.65;49.38
58471;BME280;44258;51.288;12.068;2023-05-12T07:33:34;100579.38;;;17.87;49.02
58471;BME280;44258;51.288;12.068;2023-05-12T07:36:00;100580.69;;;18.04;48.81
58471;BME280;44258;51.288;12.068;2023-05-12T07:38:29;100570.31;;;18.09;48.22
58471;BME280;44258;51.288;12.068;2023-05-12T07:40:56;100575.94;;;18.28;47.73
58471;BME280;44258;51.288;12.068;2023-05-12T07:43:22;100567.53;;;18.52;47.18
58471;BME280;44258;51.288;12.068;2023-05-12T07:45:50;100569.31;;;18.63;46.69
58471;BME280;44258;51.288;12.068;2023-05-12T07:48:18;100571.78;;;19.08;45.98
58471;BME280;44258;51.288;12.068;2023-05-12T07:50:45;100569.50;;;19.44;44.52
58471;BME280;44258;51.288;12.068;2023-05-12T07:53:12;100576.44;;;18.97;44.59
58471;BME280;44258;51.288;12.068;2023-05-12T07:55:38;100575.00;;;19.64;45.39
58471;BME280;44258;51.288;12.068;2023-05-12T07:58:05;100567.34;;;19.98;43.67
58471;BME280;44258;51.288;12.068;2023-05-12T08:00:32;100575.56;;;19.58;43.45
58471;BME280;44258;51.288;12.068;2023-05-12T08:03:00;100576.91;;;19.73;42.57
58471;BME280;44258;51.288;12.068;2023-05-12T08:05:30;100582.31;;;20.23;42.35
58471;BME280;44258;51.288;12.068;2023-05-12T08:07:56;100577.91;;;20.51;41.17
58471;BME280;44258;51.288;12.068;2023-05-12T08:10:23;100576.44;;;20.47;41.94
58471;BME280;44258;51.288;12.068;2023-05-12T08:12:57;100573.59;;;20.68;41.08
58471;BME280;44258;51.288;12.068;2023-05-12T08:15:26;100571.13;;;20.75;40.62
58471;BME280;44258;51.288;12.068;2023-05-12T08:17:52;100569.81;;;20.89;39.46
58471;BME280;44258;51.288;12.068;2023-05-12T08:20:20;100580.69;;;19.82;41.04
58471;BME280;44258;51.288;12.068;2023-05-12T08:22:47;100581.44;;;20.13;42.24
58471;BME280;44258;51.288;12.068;2023-05-12T08:25:15;100580.63;;;20.61;39.83
58471;BME280;44258;51.288;12.068;2023-05-12T08:27:41;100576.69;;;20.93;39.18
58471;BME280;44258;51.288;12.068;2023-05-12T08:30:09;100576.44;;;20.77;40.97
58471;BME280;44258;51.288;12.068;2023-05-12T08:32:36;100572.03;;;20.56;40.39
58471;BME280;44258;51.288;12.068;2023-05-12T08:35:04;100565.78;;;20.15;41.60
58471;BME280;44258;51.288;12.068;2023-05-12T08:37:32;100569.13;;;20.67;40.33
58471;BME280;44258;51.288;12.068;2023-05-12T08:39:59;100566.25;;;20.30;39.17
58471;BME280;44258;51.288;12.068;2023-05-12T08:42:41;100575.56;;;19.58;37.82
58471;BME280;44258;51.288;12.068;2023-05-12T08:45:10;100571.69;;;20.30;36.01
58471;BME280;44258;51.288;12.068;2023-05-12T08:47:37;100575.16;;;20.51;35.95
58471;BME280;44258;51.288;12.068;2023-05-12T08:50:05;100575.78;;;18.83;38.44
58471;BME280;44258;51.288;12.068;2023-05-12T08:52:41;100561.78;;;20.09;35.69
58471;BME280;44258;51.288;12.068;2023-05-12T08:55:08;100571.13;;;20.17;36.30
58471;BME280;44258;51.288;12.068;2023-05-12T08:57:36;100568.97;;;20.59;33.92
58471;BME280;44258;51.288;12.068;2023-05-12T09:00:11;100575.03;;;20.53;35.04
58471;BME280;44258;51.288;12.068;2023-05-12T09:02:42;100575.75;;;20.55;35.27
58471;BME280;44258;51.288;12.068;2023-05-12T09:05:09;100569.38;;;20.74;35.19
58471;BME280;44258;51.288;12.068;2023-05-12T09:07:41;100577.53;;;21.03;34.10
58471;BME280;44258;51.288;12.068;2023-05-12T09:10:14;100576.06;;;21.09;34.58
58471;BME280;44258;51.288;12.068;2023-05-12T09:12:41;100570.41;;;21.30;34.16
58471;BME280;44258;51.288;12.068;2023-05-12T09:15:15;100571.72;;;21.53;33.82
58471;BME280;44258;51.288;12.068;2023-05-12T09:17:47;100561.50;;;21.18;35.29
58471;BME280;44258;51.288;12.068;2023-05-12T09:20:14;100563.00;;;21.50;33.98
58471;BME280;44258;51.288;12.068;2023-05-12T09:22:41;100571.81;;;21.44;34.45
58471;BME280;44258;51.288;12.068;2023-05-12T09:25:16;100569.69;;;21.56;35.31
58471;BME280;44258;51.288;12.068;2023-05-12T09:27:45;100564.78;;;21.87;32.58
58471;BME280;44258;51.288;12.068;2023-05-12T09:30:12;100564.75;;;21.69;31.85
58471;BME280;44258;51.288;12.068;2023-05-12T09:32:39;100563.84;;;21.50;31.67
58471;BME280;44258;51.288;12.068;2023-05-12T09:35:07;100562.66;;;21.53;33.00
58471;BME280;44258;51.288;12.068;2023-05-12T09:37:36;100569.66;;;21.65;32.90
58471;BME280;44258;51.288;12.068;2023-05-12T09:40:04;100567.19;;;21.90;31.57
58471;BME280;44258;51.288;12.068;2023-05-12T09:42:34;100560.56;;;21.92;31.57
58471;BME280;44258;51.288;12.068;2023-05-12T09:45:06;100561.56;;;22.01;30.87
58471;BME280;44258;51.288;12.068;2023-05-12T09:47:34;100565.06;;;22.11;31.36
58471;BME280;44258;51.288;12.068;2023-05-12T09:50:06;100564.66;;;22.06;30.68
58471;BME280;44258;51.288;12.068;2023-05-12T09:52:35;100559.66;;;22.02;32.39
58471;BME280;44258;51.288;12.068;2023-05-12T09:55:05;100552.88;;;22.24;31.50
58471;BME280;44258;51.288;12.068;2023-05-12T09:57:38;100559.06;;;22.26;31.92
58471;BME280;44258;51.288;12.068;2023-05-12T10:00:07;100558.34;;;22.42;31.72
58471;BME280;44258;51.288;12.068;2023-05-12T10:02:36;100554.25;;;21.37;32.94
58471;BME280;44258;51.288;12.068;2023-05-12T10:05:09;100551.75;;;22.17;32.26
58471;BME280;44258;51.288;12.068;2023-05-12T10:07:42;100543.84;;;22.49;32.17
58471;BME280;44258;51.288;12.068;2023-05-12T10:10:12;100554.81;;;22.31;32.17
58471;BME280;44258;51.288;12.068;2023-05-12T10:12:41;100546.13;;;22.00;32.58
58471;BME280;44258;51.288;12.068;2023-05-12T10:15:09;100543.72;;;20.94;32.85
58471;BME280;44258;51.288;12.068;2023-05-12T10:17:38;100559.84;;;21.72;33.27
58471;BME280;44258;51.288;12.068;2023-05-12T10:20:06;100551.75;;;22.35;31.97
58471;BME280;44258;51.288;12.068;2023-05-12T10:22:40;100541.16;;;22.76;30.94
58471;BME280;44258;51.288;12.068;2023-05-12T10:25:08;100545.78;;;22.75;30.79
58471;BME280;44258;51.288;12.068;2023-05-12T10:27:35;100542.88;;;21.87;32.37
58471;BME280;44258;51.288;12.068;2023-05-12T10:30:05;100554.34;;;22.18;31.71
58471;BME280;44258;51.288;12.068;2023-05-12T10:32:33;100544.25;;;22.19;32.66
58471;BME280;44258;51.288;12.068;2023-05-12T10:35:07;100547.19;;;21.62;33.07
58471;BME280;44258;51.288;12.068;2023-05-12T10:37:38;100545.91;;;22.29;30.71
58471;BME280;44258;51.288;12.068;2023-05-12T10:40:08;100547.69;;;22.39;30.20
58471;BME280;44258;51.288;12.068;2023-05-12T10:42:37;100547.06;;;22.27;30.87
58471;BME280;44258;51.288;12.068;2023-05-12T10:45:15;100545.03;;;22.29;30.74
58471;BME280;44258;51.288;12.068;2023-05-12T10:47:43;100546.34;;;22.43;30.59
58471;BME280;44258;51.288;12.068;2023-05-12T10:50:11;100550.41;;;22.39;30.57
58471;BME280;44258;51.288;12.068;2023-05-12T10:52:51;100550.75;;;22.36;30.44
58471;BME280;44258;51.288;12.068;2023-05-12T10:55:29;100548.09;;;22.44;30.33
58471;BME280;44258;51.288;12.068;2023-05-12T10:58:03;100541.34;;;22.56;29.94
58471;BME280;44258;51.288;12.068;2023-05-12T11:00:42;100535.03;;;22.82;30.50
58471;BME280;44258;51.288;12.068;2023-05-12T11:03:13;100538.75;;;22.99;31.29
58471;BME280;44258;51.288;12.068;2023-05-12T11:05:41;100539.59;;;22.55;31.38
58471;BME280;44258;51.288;12.068;2023-05-12T11:08:11;100535.59;;;22.23;31.84
58471;BME280;44258;51.288;12.068;2023-05-12T11:10:40;100537.34;;;22.50;31.02
58471;BME280;44258;51.288;12.068;2023-05-12T11:13:08;100541.69;;;22.79;30.03
58471;BME280;44258;51.288;12.068;2023-05-12T11:15:36;100528.94;;;22.96;30.30
58471;BME280;44258;51.288;12.068;2023-05-12T11:18:04;100539.06;;;23.30;30.41
58471;BME280;44258;51.288;12.068;2023-05-12T11:20:31;100534.34;;;23.14;29.36
58471;BME280;44258;51.288;12.068;2023-05-12T11:22:57;100537.50;;;22.93;29.13
58471;BME280;44258;51.288;12.068;2023-05-12T11:25:25;100545.94;;;23.00;28.84
58471;BME280;44258;51.288;12.068;2023-05-12T11:27:55;100537.25;;;22.60;29.66
58471;BME280;44258;51.288;12.068;2023-05-12T11:30:22;100535.97;;;22.90;29.57
58471;BME280;44258;51.288;12.068;2023-05-12T11:33:00;100538.00;;;22.70;29.03
58471;BME280;44258;51.288;12.068;2023-05-12T11:35:30;100537.47;;;22.85;29.17
58471;BME280;44258;51.288;12.068;2023-05-12T11:37:57;100541.59;;;22.89;29.39
58471;BME280;44258;51.288;12.068;2023-05-12T11:40:23;100542.34;;;22.99;27.41
58471;BME280;44258;51.288;12.068;2023-05-12T11:42:50;100539.72;;;22.89;28.92
58471;BME280;44258;51.288;12.068;2023-05-12T11:45:23;100534.34;;;23.14;28.37
58471;BME280;44258;51.288;12.068;2023-05-12T11:47:51;100540.28;;;23.27;29.03
58471;BME280;44258;51.288;12.068;2023-05-12T11:50:24;100535.59;;;23.54;29.07
58471;BME280;44258;51.288;12.068;2023-05-12T11:52:53;100526.34;;;23.55;27.80
58471;BME280;44258;51.288;12.068;2023-05-12T11:55:21;100527.66;;;23.43;28.99
58471;BME280;44258;51.288;12.068;2023-05-12T11:57:57;100539.19;;;23.20;27.67
58471;BME280;44258;51.288;12.068;2023-05-12T12:00:30;100533.78;;;23.37;28.69
58471;BME280;44258;51.288;12.068;2023-05-12T12:03:11;100532.53;;;23.57;28.69
58471;BME280;44258;51.288;12.068;2023-05-12T12:05:43;100532.06;;;23.70;28.27
58471;BME280;44258;51.288;12.068;2023-05-12T12:08:12;100539.13;;;23.81;29.46
58471;BME280;44258;51.288;12.068;2023-05-12T12:10:42;100531.44;;;24.01;26.59
58471;BME280;44258;51.288;12.068;2023-05-12T12:13:09;100532.66;;;23.98;27.38
58471;BME280;44258;51.288;12.068;2023-05-12T12:15:35;100534.16;;;23.84;28.46
58471;BME280;44258;51.288;12.068;2023-05-12T12:18:02;100540.94;;;23.56;29.32
58471;BME280;44258;51.288;12.068;2023-05-12T12:20:28;100540.72;;;23.15;27.58
58471;BME280;44258;51.288;12.068;2023-05-12T12:22:57;100541.91;;;23.46;25.72
58471;BME280;44258;51.288;12.068;2023-05-12T12:25:23;100539.59;;;23.60;25.71
58471;BME280;44258;51.288;12.068;2023-05-12T12:27:50;100541.41;;;23.51;26.81
58471;BME280;44258;51.288;12.068;2023-05-12T12:30:17;100546.97;;;23.67;28.46
58471;BME280;44258;51.288;12.068;2023-05-12T12:32:44;100547.53;;;23.87;28.41
58471;BME280;44258;51.288;12.068;2023-05-12T12:35:11;100545.81;;;23.78;26.99
58471;BME280;44258;51.288;12.068;2023-05-12T12:37:38;100551.63;;;23.75;27.87
58471;BME280;44258;51.288;12.068;2023-05-12T12:40:08;100548.72;;;23.77;27.04
58471;BME280;44258;51.288;12.068;2023-05-12T12:42:37;100547.16;;;23.31;27.69
58471;BME280;44258;51.288;12.068;2023-05-12T12:45:05;100549.84;;;21.81;28.80